Time;durP1;ratioP1;P1;durP2;ratioP2;P2;SDS_P1;SDS_P2;PMS_P1;PMS_P2;Temp;Humidity;BMP_temperature;BMP_pressure;BME280_temperature;BME280_humidity;BME280_pressure;Samples;Min_cycle;Max_cycle;Signal;HPM_P1;HPM_P2
2023/08/21 00:00:03;;;;;;;6.55;1.90;;;22.60;66.20;;;;;;5022164;28;20033;-66
2023/08/21 00:02:29;;;;;;;6.30;1.80;;;22.60;66.50;;;;;;5024609;28;20037;-66
2023/08/21 00:04:55;;;;;;;6.13;1.88;;;22.60;66.60;;;;;;5020407;28;20032;-66
2023/08/21 00:07:21;;;;;;;6.00;1.90;;;22.50;66.70;;;;;;5009804;28;20662;-66
2023/08/21 00:09:47;;;;;;;6.70;2.17;;;22.50;66.80;;;;;;5024278;28;20087;-66
2023/08/21 00:12:13;;;;;;;5.95;1.80;;;22.50;67.00;;;;;;5049617;28;20030;-66
2023/08/21 00:14:38;;;;;;;6.78;2.30;;;22.50;67.10;;;;;;5024292;28;20037;-66
2023/08/21 00:17:04;;;;;;;5.15;2.10;;;22.50;67.20;;;;;;5018746;28;20037;-66
2023/08/21 00:19:30;;;;;;;7.30;2.03;;;22.50;67.20;;;;;;5019693;28;20021;-66
2023/08/21 00:21:56;;;;;;;6.13;1.92;;;22.50;67.30;;;;;;5023444;28;20457;-66
2023/08/21 00:24:22;;;;;;;4.80;1.80;;;22.50;67.40;;;;;;5024428;28;20056;-66
2023/08/21 00:26:48;;;;;;;7.15;1.98;;;22.40;67.40;;;;;;5020583;28;20105;-66
2023/08/21 00:29:13;;;;;;;4.45;1.67;;;22.40;67.50;;;;;;5019466;28;20061;-66
2023/08/21 00:31:39;;;;;;;6.95;2.33;;;22.40;67.50;;;;;;5023882;28;20092;-66
2023/08/21 00:34:05;;;;;;;6.72;1.98;;;22.50;67.50;;;;;;5021675;28;20021;-66
2023/08/21 00:36:31;;;;;;;5.78;2.20;;;22.40;67.50;;;;;;5019598;28;20044;-66
2023/08/21 00:38:56;;;;;;;8.05;2.22;;;22.40;67.60;;;;;;5026505;28;20029;-66
2023/08/21 00:41:22;;;;;;;5.63;2.35;;;22.40;67.70;;;;;;5026327;28;20467;-66
2023/08/21 00:43:48;;;;;;;6.72;2.22;;;22.40;67.80;;;;;;5024105;28;20025;-66
2023/08/21 00:46:15;;;;;;;6.57;2.10;;;22.40;67.90;;;;;;5029120;28;20358;-66
2023/08/21 00:48:42;;;;;;;6.95;2.40;;;22.40;67.90;;;;;;5027093;28;20040;-66
2023/08/21 00:51:08;;;;;;;5.00;1.70;;;22.40;68.60;;;;;;5043811;28;20382;-66
2023/08/21 00:53:34;;;;;;;7.63;2.15;;;22.40;68.10;;;;;;5022553;28;20041;-66
2023/08/21 00:56:00;;;;;;;7.07;2.00;;;22.40;68.10;;;;;;5027457;28;20037;-66
2023/08/21 00:58:26;;;;;;;5.55;1.83;;;22.40;68.20;;;;;;5025685;28;20037;-66
2023/08/21 01:00:52;;;;;;;5.45;2.10;;;22.40;68.10;;;;;;5027658;28;20033;-66
2023/08/21 01:03:19;;;;;;;8.32;1.95;;;22.40;68.20;;;;;;5048620;28;20504;-66
2023/08/21 01:05:45;;;;;;;5.68;2.00;;;22.50;68.30;;;;;;5025069;28;20030;-65
2023/08/21 01:08:25;;;;;;;6.93;2.15;;;22.40;68.30;;;;;;5025295;28;20037;-65
2023/08/21 01:11:02;;;;;;;7.85;2.15;;;22.40;68.30;;;;;;5026630;28;20041;-65
2023/08/21 01:13:50;;;;;;;8.95;2.15;;;22.40;68.30;;;;;;5024922;28;20038;-65
2023/08/21 01:16:16;;;;;;;6.38;1.67;;;22.40;68.40;;;;;;5029673;28;20033;-65
2023/08/21 01:18:44;;;;;;;6.65;1.80;;;22.40;68.50;;;;;;5026331;28;20032;-66
2023/08/21 01:21:11;;;;;;;6.68;2.40;;;22.30;68.50;;;;;;5029085;28;20021;-65
2023/08/21 01:23:38;;;;;;;5.65;1.83;;;22.30;68.60;;;;;;5023842;28;20041;-66
2023/08/21 01:26:04;;;;;;;5.05;1.90;;;22.30;68.80;;;;;;5025487;28;20018;-65
2023/08/21 01:28:32;;;;;;;6.35;2.28;;;22.30;68.90;;;;;;5026202;28;20052;-66
2023/08/21 01:31:14;;;;;;;5.90;2.10;;;22.20;69.00;;;;;;5025981;28;20029;-67
2023/08/21 01:33:56;;;;;;;7.43;2.10;;;22.20;69.10;;;;;;5025630;28;20033;-66
2023/08/21 01:36:23;;;;;;;6.03;1.90;;;22.20;69.10;;;;;;5023111;28;20434;-65
2023/08/21 01:38:49;;;;;;;7.57;2.30;;;22.20;69.20;;;;;;5011408;28;20021;-66
2023/08/21 01:41:15;;;;;;;7.75;2.20;;;22.20;69.20;;;;;;5028090;28;20097;-66
2023/08/21 01:43:40;;;;;;;5.47;2.17;;;22.10;69.20;;;;;;5024165;28;20718;-66
2023/08/21 01:46:08;;;;;;;6.03;2.25;;;22.10;69.40;;;;;;5023161;28;20355;-66
2023/08/21 01:48:33;;;;;;;5.22;2.00;;;22.10;69.50;;;;;;5023491;28;20025;-66
2023/08/21 01:51:02;;;;;;;5.47;2.00;;;22.10;69.60;;;;;;5025944;28;20398;-66
2023/08/21 01:53:28;;;;;;;7.78;2.30;;;22.00;69.70;;;;;;5026166;28;20018;-66
2023/08/21 01:55:54;;;;;;;6.88;2.35;;;22.00;69.80;;;;;;5025052;28;20026;-66
2023/08/21 01:58:20;;;;;;;5.60;1.92;;;22.00;69.90;;;;;;5049451;28;20033;-66
2023/08/21 02:00:47;;;;;;;6.03;2.10;;;22.00;69.90;;;;;;5048645;28;20029;-66
2023/08/21 02:03:13;;;;;;;6.32;2.15;;;22.00;70.00;;;;;;5027983;28;20098;-66
2023/08/21 02:05:42;;;;;;;5.15;1.80;;;21.90;70.00;;;;;;5024656;28;20029;-65
2023/08/21 02:08:14;;;;;;;6.47;2.60;;;22.00;70.10;;;;;;5023994;28;20048;-66
2023/08/21 02:10:51;;;;;;;7.78;2.15;;;21.90;70.20;;;;;;5025854;28;20032;-66
2023/08/21 02:13:18;;;;;;;4.93;1.67;;;21.90;70.30;;;;;;5024176;28;20114;-66
2023/08/21 02:15:44;;;;;;;6.15;2.30;;;21.90;70.30;;;;;;5026676;28;20029;-66
2023/08/21 02:18:11;;;;;;;8.52;2.25;;;21.90;70.30;;;;;;5026417;28;20037;-65
2023/08/21 02:20:38;;;;;;;5.88;2.05;;;21.90;70.30;;;;;;5020344;28;20358;-65
2023/08/21 02:23:04;;;;;;;6.43;1.90;;;21.90;70.30;;;;;;5047381;28;20035;-66
2023/08/21 02:25:31;;;;;;;7.13;2.05;;;21.90;70.30;;;;;;5009570;28;20022;-66
2023/08/21 02:27:57;;;;;;;5.25;1.83;;;21.90;70.30;;;;;;5024098;28;20029;-66
2023/08/21 02:30:25;;;;;;;8.82;2.42;;;21.90;70.30;;;;;;5021214;28;20037;-66
2023/08/21 02:32:53;;;;;;;5.85;2.03;;;21.90;70.30;;;;;;5021381;28;20160;-66
2023/08/21 02:35:20;;;;;;;5.85;2.42;;;21.90;70.20;;;;;;5022611;28;20018;-66
2023/08/21 02:37:46;;;;;;;6.18;1.83;;;21.90;70.10;;;;;;5024058;28;20030;-66
2023/08/21 02:40:12;;;;;;;6.78;2.03;;;22.00;70.10;;;;;;5027081;28;20117;-66
2023/08/21 02:42:38;;;;;;;5.88;1.95;;;21.90;70.00;;;;;;5024729;28;20400;-65
2023/08/21 02:45:08;;;;;;;7.13;2.08;;;21.90;70.00;;;;;;5023331;28;20430;-67
2023/08/21 02:47:42;;;;;;;6.75;2.30;;;21.90;69.90;;;;;;5022392;28;20025;-65
2023/08/21 02:50:09;;;;;;;7.50;2.20;;;21.90;69.80;;;;;;5034979;28;20029;-66
2023/08/21 02:52:37;;;;;;;8.13;2.47;;;21.90;69.80;;;;;;5029722;28;20374;-65
2023/08/21 02:55:04;;;;;;;4.70;1.90;;;21.90;69.90;;;;;;5023114;28;20024;-66
2023/08/21 02:57:30;;;;;;;6.78;1.92;;;21.90;70.10;;;;;;5025533;28;20044;-66
2023/08/21 02:59:56;;;;;;;6.20;2.15;;;21.90;70.00;;;;;;5049834;28;20022;-66
2023/08/21 03:02:22;;;;;;;8.50;1.92;;;21.90;70.00;;;;;;5025256;28;20451;-66
2023/08/21 03:04:49;;;;;;;6.38;2.20;;;21.90;70.00;;;;;;5021877;28;20022;-66
2023/08/21 03:07:15;;;;;;;5.70;2.13;;;21.90;70.00;;;;;;5022745;28;21597;-66
2023/08/21 03:09:41;;;;;;;5.25;1.80;;;21.90;70.00;;;;;;5048418;28;20065;-66
2023/08/21 03:12:08;;;;;;;4.85;1.88;;;21.90;70.10;;;;;;5026405;28;20512;-66
2023/08/21 03:14:34;;;;;;;7.75;2.28;;;21.80;70.10;;;;;;5026995;28;20171;-65
2023/08/21 03:16:59;;;;;;;4.95;1.92;;;21.80;70.20;;;;;;5025385;28;20169;-65
2023/08/21 03:19:25;;;;;;;6.15;1.98;;;21.80;70.20;;;;;;5039432;28;20025;-66
2023/08/21 03:21:51;;;;;;;5.50;1.92;;;21.80;70.20;;;;;;5027164;28;20026;-66
2023/08/21 03:24:18;;;;;;;5.90;1.75;;;21.80;70.20;;;;;;5022684;28;20064;-66
2023/08/21 03:26:44;;;;;;;6.03;1.98;;;21.80;70.30;;;;;;5025233;28;20029;-66
2023/08/21 03:29:10;;;;;;;5.90;1.88;;;21.80;70.30;;;;;;5020284;28;20029;-66
2023/08/21 03:31:36;;;;;;;8.15;2.00;;;21.90;70.50;;;;;;5025251;28;20035;-65
2023/08/21 03:34:02;;;;;;;6.75;1.90;;;21.90;70.60;;;;;;5023388;28;20451;-66
2023/08/21 03:36:31;;;;;;;5.93;2.03;;;21.90;70.70;;;;;;5024120;28;20026;-66
2023/08/21 03:38:59;;;;;;;5.45;1.95;;;21.90;70.70;;;;;;5045396;28;20344;-66
2023/08/21 03:41:25;;;;;;;6.88;1.70;;;21.90;70.60;;;;;;5025035;28;20053;-66
2023/08/21 03:43:50;;;;;;;7.47;2.10;;;21.90;70.50;;;;;;5025249;28;20144;-66
2023/08/21 03:46:16;;;;;;;5.43;1.73;;;21.90;70.50;;;;;;5023001;28;20406;-66
2023/08/21 03:48:42;;;;;;;5.50;1.80;;;21.90;70.50;;;;;;5009120;28;20038;-65
2023/08/21 03:51:08;;;;;;;6.25;1.80;;;21.90;70.40;;;;;;5016800;28;20029;-66
2023/08/21 03:53:34;;;;;;;8.93;2.35;;;21.90;70.30;;;;;;5024040;28;20049;-66
2023/08/21 03:56:01;;;;;;;8.15;1.92;;;21.90;70.30;;;;;;5060580;28;20447;-66
2023/08/21 03:58:26;;;;;;;8.15;2.08;;;21.90;70.40;;;;;;5021063;28;20037;-66
2023/08/21 04:00:53;;;;;;;8.18;1.83;;;21.90;70.40;;;;;;5048271;28;20459;-66
2023/08/21 04:03:20;;;;;;;5.78;1.90;;;21.90;70.50;;;;;;5021322;28;20030;-66
2023/08/21 04:05:46;;;;;;;5.28;1.88;;;21.90;70.40;;;;;;5017301;28;20025;-66
2023/08/21 04:08:11;;;;;;;5.40;1.90;;;21.80;70.30;;;;;;5013157;28;20178;-66
2023/08/21 04:10:38;;;;;;;6.32;1.70;;;21.80;70.40;;;;;;5025009;28;20466;-66
2023/08/21 04:13:05;;;;;;;5.68;1.83;;;21.70;70.50;;;;;;5014190;28;20033;-66
2023/08/21 04:15:31;;;;;;;7.15;2.10;;;21.70;70.50;;;;;;5016357;28;20107;-65
2023/08/21 04:17:57;;;;;;;6.35;1.90;;;21.70;70.50;;;;;;5019663;28;20017;-66
2023/08/21 04:20:23;;;;;;;4.95;1.77;;;21.60;70.50;;;;;;5036339;28;20101;-65
2023/08/21 04:22:49;;;;;;;5.28;1.80;;;21.60;70.60;;;;;;5019269;28;20026;-65
2023/08/21 04:25:15;;;;;;;6.57;1.80;;;21.60;70.60;;;;;;5018512;28;20025;-65
2023/08/21 04:27:42;;;;;;;5.43;1.88;;;21.60;70.70;;;;;;5015455;28;20061;-65
2023/08/21 04:30:09;;;;;;;5.70;1.73;;;21.60;70.70;;;;;;5049855;28;20358;-65
2023/08/21 04:32:35;;;;;;;3.30;1.40;;;21.60;70.70;;;;;;5009226;28;20029;-64
2023/08/21 04:35:01;;;;;;;6.93;1.70;;;21.60;70.80;;;;;;5018081;28;20386;-65
2023/08/21 04:37:27;;;;;;;4.95;1.52;;;21.60;70.60;;;;;;5046594;28;20442;-65
2023/08/21 04:39:54;;;;;;;8.02;1.75;;;21.60;70.40;;;;;;5024142;28;20080;-65
2023/08/21 04:42:20;;;;;;;6.30;1.60;;;21.60;70.10;;;;;;5022367;28;20030;-65
2023/08/21 04:44:46;;;;;;;5.15;1.48;;;21.60;70.00;;;;;;5023788;28;20028;-65
2023/08/21 04:47:26;;;;;;;5.85;1.80;;;21.60;69.80;;;;;;5025516;28;20053;-65
2023/08/21 04:49:55;;;;;;;6.18;1.88;;;21.60;69.70;;;;;;5028781;28;20037;-65
2023/08/21 04:52:23;;;;;;;5.75;1.95;;;21.60;69.70;;;;;;5038314;28;20037;-65
2023/08/21 04:54:49;;;;;;;5.75;1.58;;;21.60;69.70;;;;;;5041484;28;20354;-65
2023/08/21 04:57:15;;;;;;;6.18;1.60;;;21.60;69.50;;;;;;5022801;28;20045;-66
2023/08/21 04:59:41;;;;;;;6.32;1.70;;;21.60;69.30;;;;;;5013457;28;20374;-66
2023/08/21 05:02:07;;;;;;;5.03;1.80;;;21.60;69.30;;;;;;5033873;28;20021;-65
2023/08/21 05:04:36;;;;;;;6.82;1.90;;;21.60;69.20;;;;;;5033194;28;20394;-65
2023/08/21 05:07:02;;;;;;;6.00;1.60;;;21.60;69.20;;;;;;5046910;28;20021;-65
2023/08/21 05:09:29;;;;;;;5.32;1.83;;;21.60;69.20;;;;;;5033187;28;20057;-65
2023/08/21 05:11:55;;;;;;;11.15;1.95;;;21.60;69.30;;;;;;5032947;28;20026;-65
2023/08/21 05:14:22;;;;;;;4.53;1.50;;;21.60;69.30;;;;;;5016838;28;20385;-65
2023/08/21 05:16:49;;;;;;;7.55;1.85;;;21.60;69.40;;;;;;5021901;28;20021;-66
2023/08/21 05:19:15;;;;;;;6.47;1.63;;;21.60;69.50;;;;;;5013671;28;20030;-65
2023/08/21 05:21:40;;;;;;;4.75;1.80;;;21.60;69.40;;;;;;5028895;28;20037;-65
2023/08/21 05:24:06;;;;;;;3.58;1.40;;;21.70;69.40;;;;;;5032657;28;20034;-65
2023/08/21 05:26:38;;;;;;;6.30;1.80;;;21.70;69.50;;;;;;5032550;28;20029;-65
2023/08/21 05:29:04;;;;;;;6.25;2.10;;;21.70;69.50;;;;;;5045348;28;20038;-65
2023/08/21 05:31:30;;;;;;;4.45;1.80;;;21.70;69.50;;;;;;5066156;28;20443;-66
2023/08/21 05:33:56;;;;;;;7.22;2.20;;;21.70;69.50;;;;;;5031661;28;20022;-66
2023/08/21 05:36:22;;;;;;;5.53;2.10;;;21.80;69.60;;;;;;5021432;28;20346;-66
2023/08/21 05:38:48;;;;;;;5.60;1.90;;;21.70;69.50;;;;;;5018430;28;20020;-66
2023/08/21 05:41:15;;;;;;;5.68;1.67;;;21.80;69.60;;;;;;5023287;28;20068;-66
2023/08/21 05:43:42;;;;;;;6.50;2.00;;;21.90;69.40;;;;;;5032666;28;20443;-66
2023/08/21 05:46:08;;;;;;;5.50;1.70;;;21.90;69.20;;;;;;5049097;28;20538;-66
2023/08/21 05:48:34;;;;;;;4.68;1.80;;;22.00;69.20;;;;;;5050285;28;20108;-66
2023/08/21 05:51:00;;;;;;;5.43;2.05;;;22.00;69.30;;;;;;5036296;28;20025;-66
2023/08/21 05:53:26;;;;;;;5.45;1.67;;;22.00;70.00;;;;;;5020896;28;20101;-66
2023/08/21 05:55:53;;;;;;;6.50;1.98;;;22.10;69.40;;;;;;5018165;28;20025;-66
2023/08/21 05:58:19;;;;;;;5.60;2.00;;;22.10;69.30;;;;;;5039119;28;20076;-66
2023/08/21 06:00:47;;;;;;;5.57;2.15;;;22.10;69.40;;;;;;5032270;28;20057;-66
2023/08/21 06:03:13;;;;;;;6.18;1.98;;;22.10;69.60;;;;;;5027744;28;21339;-65
2023/08/21 06:06:03;;;;;;;4.90;2.08;;;22.00;69.60;;;;;;5017611;28;20045;-65
2023/08/21 06:08:28;;;;;;;6.18;2.10;;;22.00;69.50;;;;;;5008071;28;20026;-65
2023/08/21 06:10:54;;;;;;;7.40;2.17;;;22.00;69.40;;;;;;5029363;28;20037;-68
2023/08/21 06:13:20;;;;;;;4.85;1.77;;;22.20;69.20;;;;;;5026614;28;20033;-67
2023/08/21 06:15:49;;;;;;;5.30;2.20;;;22.40;68.70;;;;;;5021061;28;20021;-67
2023/08/21 06:18:15;;;;;;;7.40;2.08;;;22.70;68.10;;;;;;5024465;28;20032;-67
2023/08/21 06:20:44;;;;;;;6.22;1.90;;;23.10;66.80;;;;;;5019528;28;20354;-67
2023/08/21 06:23:10;;;;;;;6.60;2.25;;;23.20;66.10;;;;;;5033248;28;20079;-67
2023/08/21 06:25:36;;;;;;;6.47;2.08;;;23.30;65.90;;;;;;5068980;28;20463;-67
2023/08/21 06:28:03;;;;;;;8.07;2.15;;;23.40;65.80;;;;;;5047603;28;20060;-67
2023/08/21 06:30:29;;;;;;;8.02;2.22;;;23.40;65.70;;;;;;5037372;28;20167;-66
2023/08/21 06:32:55;;;;;;;7.38;2.17;;;23.30;65.80;;;;;;5037886;28;20116;-67
2023/08/21 06:35:21;;;;;;;7.20;2.42;;;23.30;65.90;;;;;;5035928;28;20021;-67
2023/08/21 06:37:47;;;;;;;7.50;2.17;;;23.20;65.90;;;;;;5019515;28;20071;-66
2023/08/21 06:40:13;;;;;;;7.30;1.85;;;23.10;65.90;;;;;;5024946;28;20443;-67
2023/08/21 06:42:38;;;;;;;9.07;2.45;;;23.10;65.80;;;;;;5030585;28;20458;-67
2023/08/21 06:45:05;;;;;;;5.90;2.20;;;23.10;65.80;;;;;;5068751;28;20056;-66
2023/08/21 06:47:32;;;;;;;7.07;2.15;;;23.10;66.20;;;;;;5035776;28;20044;-66
2023/08/21 06:49:58;;;;;;;9.95;2.40;;;23.10;66.30;;;;;;5028824;28;20041;-68
2023/08/21 06:52:23;;;;;;;7.68;2.28;;;23.10;65.90;;;;;;5032429;28;20052;-67
2023/08/21 06:54:49;;;;;;;9.25;2.35;;;23.20;65.50;;;;;;5036119;28;20018;-67
2023/08/21 06:57:15;;;;;;;5.05;2.08;;;23.30;65.20;;;;;;5036218;28;20044;-68
2023/08/21 06:59:40;;;;;;;9.48;2.47;;;23.40;64.80;;;;;;5034282;28;20031;-68
2023/08/21 07:02:06;;;;;;;7.93;2.22;;;23.50;64.50;;;;;;5035223;28;20021;-68
2023/08/21 07:04:35;;;;;;;6.43;2.10;;;23.60;64.30;;;;;;5035320;28;20112;-68
2023/08/21 07:07:01;;;;;;;6.22;1.58;;;23.60;63.90;;;;;;5022146;28;20029;-68
2023/08/21 07:09:27;;;;;;;6.63;2.03;;;23.70;64.00;;;;;;5018950;28;20037;-68
2023/08/21 07:11:52;;;;;;;6.53;1.88;;;23.70;64.10;;;;;;5016446;28;20367;-68
2023/08/21 07:14:19;;;;;;;6.38;1.85;;;23.90;63.80;;;;;;5035399;28;20450;-68
2023/08/21 07:16:45;;;;;;;5.75;1.90;;;24.00;63.50;;;;;;5036020;28;20053;-68
2023/08/21 07:19:11;;;;;;;5.25;1.92;;;24.20;63.20;;;;;;5035051;28;20402;-67
2023/08/21 07:21:38;;;;;;;7.72;1.50;;;24.30;62.40;;;;;;5051284;28;20084;-68
2023/08/21 07:24:04;;;;;;;6.03;1.70;;;24.50;62.20;;;;;;5035795;28;20032;-68
2023/08/21 07:26:30;;;;;;;4.78;1.50;;;24.60;61.90;;;;;;5018605;28;20339;-68
2023/08/21 07:28:56;;;;;;;5.30;1.48;;;24.90;61.10;;;;;;5020177;28;20132;-68
2023/08/21 07:31:22;;;;;;;6.90;2.00;;;25.10;60.40;;;;;;5033398;28;20129;-68
2023/08/21 07:33:48;;;;;;;5.88;1.83;;;25.30;59.80;;;;;;5034718;28;20025;-68
2023/08/21 07:36:17;;;;;;;6.93;1.75;;;25.30;59.40;;;;;;5035567;28;20032;-68
2023/08/21 07:38:46;;;;;;;6.57;2.13;;;25.20;59.40;;;;;;5034497;28;20363;-68
2023/08/21 07:41:12;;;;;;;4.78;1.50;;;25.20;59.40;;;;;;5033358;28;20110;-68
2023/08/21 07:43:41;;;;;;;5.88;1.55;;;25.30;59.40;;;;;;5035498;28;20152;-68
2023/08/21 07:46:10;;;;;;;7.72;1.85;;;25.40;59.10;;;;;;5034347;28;20033;-68
2023/08/21 07:48:36;;;;;;;5.93;1.67;;;25.60;58.70;;;;;;5034153;28;20116;-68
2023/08/21 07:51:03;;;;;;;8.18;1.85;;;25.60;58.30;;;;;;5033088;28;20155;-68
2023/08/21 07:53:31;;;;;;;6.10;1.70;;;25.70;58.20;;;;;;5025640;28;20025;-68
2023/08/21 07:55:58;;;;;;;7.43;1.83;;;25.60;58.20;;;;;;5034092;28;20025;-68
2023/08/21 07:58:24;;;;;;;6.60;1.42;;;25.50;58.20;;;;;;5035104;28;20124;-68
2023/08/21 08:00:49;;;;;;;8.13;2.03;;;25.30;58.50;;;;;;5032403;28;20376;-66
2023/08/21 08:03:15;;;;;;;8.02;1.95;;;25.20;58.70;;;;;;5030454;28;20372;-65
2023/08/21 08:05:42;;;;;;;6.10;1.40;;;25.20;58.50;;;;;;5032892;28;20041;-66
2023/08/21 08:08:11;;;;;;;5.97;1.25;;;25.10;58.50;;;;;;5033091;28;20407;-66
2023/08/21 08:10:40;;;;;;;5.72;1.80;;;25.10;58.70;;;;;;5032104;28;20029;-67
2023/08/21 08:13:07;;;;;;;7.00;1.50;;;25.30;58.60;;;;;;5046040;28;20489;-67
2023/08/21 08:15:36;;;;;;;8.43;1.63;;;25.30;58.20;;;;;;5028328;28;20029;-67
2023/08/21 08:18:03;;;;;;;6.13;1.50;;;25.30;58.10;;;;;;5034592;28;20055;-67
2023/08/21 08:20:30;;;;;;;6.75;1.60;;;25.30;58.20;;;;;;5038630;28;20036;-68
2023/08/21 08:22:57;;;;;;;5.15;1.58;;;25.30;58.40;;;;;;5029283;28;20459;-67
2023/08/21 08:25:23;;;;;;;6.78;1.67;;;25.50;58.30;;;;;;5032666;28;20147;-68
2023/08/21 08:27:49;;;;;;;6.45;1.70;;;25.60;58.00;;;;;;5030452;28;20062;-67
2023/08/21 08:30:15;;;;;;;6.57;1.70;;;25.60;58.00;;;;;;5026901;28;20111;-69
2023/08/21 08:32:44;;;;;;;5.45;1.70;;;25.50;58.40;;;;;;5024245;28;20328;-68
2023/08/21 08:35:14;;;;;;;5.93;1.42;;;25.50;58.30;;;;;;5019904;28;20022;-67
2023/08/21 08:37:43;;;;;;;6.50;1.80;;;25.40;58.70;;;;;;5013697;28;20116;-68
2023/08/21 08:40:11;;;;;;;8.05;1.67;;;25.30;58.80;;;;;;5036864;28;20037;-68
2023/08/21 08:42:37;;;;;;;5.03;1.40;;;25.30;58.60;;;;;;5019214;28;20045;-69
2023/08/21 08:45:04;;;;;;;5.65;1.50;;;25.50;59.00;;;;;;5018890;28;20059;-69
2023/08/21 08:47:33;;;;;;;8.82;1.98;;;25.70;58.40;;;;;;5018336;28;20056;-66
2023/08/21 08:50:01;;;;;;;5.63;1.55;;;25.70;58.30;;;;;;5005720;28;20037;-69
2023/08/21 08:52:28;;;;;;;5.35;1.60;;;25.70;58.20;;;;;;5015412;28;20038;-66
2023/08/21 08:54:57;;;;;;;5.82;1.85;;;25.70;58.70;;;;;;5026814;28;20026;-66
2023/08/21 08:57:23;;;;;;;7.18;1.70;;;25.70;58.40;;;;;;5011437;28;20021;-66
2023/08/21 08:59:48;;;;;;;5.15;1.60;;;25.80;58.00;;;;;;5033804;28;20034;-67
2023/08/21 09:02:15;;;;;;;7.03;1.60;;;26.00;57.70;;;;;;5032620;28;20052;-67
2023/08/21 09:04:41;;;;;;;5.88;1.83;;;26.10;57.70;;;;;;5032479;28;20029;-67
2023/08/21 09:07:11;;;;;;;6.75;1.85;;;26.30;57.60;;;;;;5022548;28;20036;-67
2023/08/21 09:09:44;;;;;;;7.07;1.88;;;26.50;56.90;;;;;;5028076;28;20029;-66
2023/08/21 09:12:14;;;;;;;6.75;1.98;;;26.60;56.80;;;;;;5020977;28;20044;-66
2023/08/21 09:14:41;;;;;;;5.50;1.60;;;26.60;56.40;;;;;;5019834;28;20068;-67
2023/08/21 09:17:07;;;;;;;6.53;1.80;;;26.70;56.60;;;;;;5033277;28;20036;-67
2023/08/21 09:19:33;;;;;;;5.30;1.45;;;26.60;56.70;;;;;;5023620;28;20112;-66
2023/08/21 09:22:14;;;;;;;6.22;1.73;;;26.50;57.00;;;;;;5025127;28;20375;-67
2023/08/21 09:24:59;;;;;;;5.88;1.27;;;26.40;56.80;;;;;;5016824;28;20125;-68
2023/08/21 09:27:24;;;;;;;6.80;1.70;;;26.30;56.70;;;;;;5026881;28;20029;-67
2023/08/21 09:29:50;;;;;;;5.97;1.60;;;26.40;56.50;;;;;;5024775;28;20025;-69
2023/08/21 09:32:16;;;;;;;8.40;1.42;;;26.60;56.70;;;;;;5026211;28;20026;-69
2023/08/21 09:34:42;;;;;;;7.68;1.90;;;26.90;56.50;;;;;;5033731;28;20117;-66
2023/08/21 09:37:09;;;;;;;4.03;1.30;;;27.10;55.90;;;;;;5007617;28;20370;-68
2023/08/21 09:39:36;;;;;;;7.05;1.73;;;27.30;55.40;;;;;;5016569;28;20021;-68
2023/08/21 09:42:06;;;;;;;7.22;1.73;;;27.50;54.90;;;;;;5015350;28;20528;-67
2023/08/21 09:44:41;;;;;;;6.85;1.50;;;27.50;54.60;;;;;;5026355;28;20086;-68
2023/08/21 09:47:12;;;;;;;4.43;1.67;;;27.60;54.70;;;;;;5021382;28;20451;-67
2023/08/21 09:49:39;;;;;;;6.30;1.45;;;27.70;54.10;;;;;;5021612;28;20400;-67
2023/08/21 09:52:11;;;;;;;7.15;1.80;;;27.80;54.20;;;;;;5027434;28;20143;-67
2023/08/21 09:54:42;;;;;;;4.60;1.65;;;27.90;53.70;;;;;;5021485;28;20041;-66
2023/08/21 09:57:09;;;;;;;;;;;28.10;53.50;;;;;;5025806;28;20113;-67
2023/08/21 09:59:35;;;;;;;3.33;1.20;;;28.30;53.60;;;;;;5023461;28;20004;-68
2023/08/21 10:02:04;;;;;;;4.55;1.40;;;28.40;53.20;;;;;;5036517;28;20435;-68
2023/08/21 10:04:34;;;;;;;7.28;1.75;;;28.50;53.70;;;;;;5021779;28;20474;-68
2023/08/21 10:07:03;;;;;;;3.78;1.58;;;28.50;52.90;;;;;;5027878;28;20033;-67
2023/08/21 10:09:29;;;;;;;6.38;1.85;;;28.60;52.80;;;;;;5016221;28;20127;-68
2023/08/21 10:11:57;;;;;;;6.07;1.73;;;28.70;52.60;;;;;;5020509;28;20065;-68
2023/08/21 10:14:25;;;;;;;5.00;1.48;;;28.80;52.20;;;;;;5032615;28;20355;-67
2023/08/21 10:16:53;;;;;;;3.70;1.17;;;28.90;51.80;;;;;;5051059;28;20017;-67
2023/08/21 10:19:19;;;;;;;5.60;1.55;;;28.90;51.30;;;;;;5033919;28;20018;-68
2023/08/21 10:21:49;;;;;;;5.28;1.88;;;29.00;51.20;;;;;;5012153;28;20038;-67
2023/08/21 10:24:28;;;;;;;4.95;1.33;;;29.00;50.70;;;;;;5052898;28;20075;-68
2023/08/21 10:26:54;;;;;;;3.08;1.20;;;29.10;50.60;;;;;;5028927;28;20057;-68
2023/08/21 10:29:19;;;;;;;5.68;1.60;;;29.10;50.60;;;;;;5025900;28;20417;-68
2023/08/21 10:31:45;;;;;;;4.78;1.58;;;29.20;49.90;;;;;;5024996;28;20080;-68
2023/08/21 10:34:13;;;;;;;4.93;1.45;;;29.10;49.30;;;;;;5024308;28;20045;-68
2023/08/21 10:36:44;;;;;;;4.53;1.42;;;29.20;49.20;;;;;;5030107;28;20021;-68
2023/08/21 10:39:21;;;;;;;6.90;1.48;;;29.20;49.10;;;;;;5012017;28;20117;-69
2023/08/21 10:42:04;;;;;;;5.15;1.58;;;29.20;49.00;;;;;;5025595;28;20103;-68
2023/08/21 10:44:37;;;;;;;4.15;1.42;;;29.20;48.80;;;;;;5026246;28;20347;-69
2023/08/21 10:47:27;;;;;;;4.72;1.40;;;29.00;49.30;;;;;;5038638;28;20037;-68
2023/08/21 10:50:05;;;;;;;5.40;1.60;;;29.00;49.70;;;;;;5012096;28;20136;-68
2023/08/21 10:52:36;;;;;;;5.65;1.88;;;28.90;49.70;;;;;;5033955;28;20063;-69
2023/08/21 10:55:05;;;;;;;5.35;1.55;;;29.00;49.30;;;;;;5036428;28;20462;-68
2023/08/21 10:57:33;;;;;;;4.63;1.58;;;29.20;49.20;;;;;;5035292;28;20026;-68
2023/08/21 11:00:09;;;;;;;6.40;1.42;;;29.30;49.00;;;;;;5034684;28;20030;-68
2023/08/21 11:02:36;;;;;;;5.20;1.38;;;29.40;49.50;;;;;;5026065;28;20034;-68
2023/08/21 11:05:03;;;;;;;6.05;1.45;;;29.50;48.50;;;;;;5036432;28;20077;-68
2023/08/21 11:07:30;;;;;;;7.97;2.00;;;29.50;48.10;;;;;;5034514;28;20076;-68
2023/08/21 11:09:57;;;;;;;4.15;1.45;;;29.50;48.00;;;;;;5033761;28;20025;-68
2023/08/21 11:12:24;;;;;;;3.55;1.33;;;29.50;48.90;;;;;;5043729;28;20386;-69
2023/08/21 11:14:50;;;;;;;4.25;1.35;;;29.50;48.50;;;;;;5035001;28;20056;-69
2023/08/21 11:17:18;;;;;;;5.22;1.83;;;29.50;48.50;;;;;;5033169;28;20021;-68
2023/08/21 11:19:45;;;;;;;4.28;1.50;;;29.60;48.40;;;;;;5018278;28;20029;-68
2023/08/21 11:22:11;;;;;;;4.20;1.80;;;29.60;48.30;;;;;;5046272;28;20096;-69
2023/08/21 11:24:37;;;;;;;6.60;1.60;;;29.70;48.20;;;;;;5028628;28;20327;-69
2023/08/21 11:27:10;;;;;;;4.38;1.48;;;29.90;48.20;;;;;;5025255;28;20028;-68
2023/08/21 11:29:47;;;;;;;5.82;1.60;;;29.90;47.80;;;;;;5038354;28;20431;-69
2023/08/21 11:32:23;;;;;;;5.63;1.67;;;29.90;47.60;;;;;;5019252;28;20427;-68
2023/08/21 11:34:49;;;;;;;5.35;1.63;;;29.90;47.60;;;;;;5035177;28;20036;-67
2023/08/21 11:37:20;;;;;;;5.45;1.73;;;29.90;47.70;;;;;;5030540;28;20021;-68
2023/08/21 11:39:48;;;;;;;3.45;1.38;;;29.80;47.50;;;;;;5030994;28;20030;-68
2023/08/21 11:42:15;;;;;;;6.22;1.95;;;29.70;47.80;;;;;;5019769;28;20021;-68
2023/08/21 11:44:50;;;;;;;4.63;1.55;;;29.70;47.80;;;;;;5039683;28;20036;-68
2023/08/21 11:47:18;;;;;;;6.97;2.38;;;29.70;47.50;;;;;;5031958;28;20061;-68
2023/08/21 11:49:47;;;;;;;5.18;1.50;;;29.80;47.70;;;;;;5024145;28;20463;-68
2023/08/21 11:52:13;;;;;;;3.83;1.40;;;29.90;47.30;;;;;;5024460;28;20405;-68
2023/08/21 11:54:41;;;;;;;5.30;1.42;;;29.80;47.00;;;;;;5028200;28;20029;-68
2023/08/21 11:57:11;;;;;;;5.47;1.30;;;29.80;47.70;;;;;;5026052;28;20021;-68
2023/08/21 11:59:37;;;;;;;4.68;1.55;;;29.70;47.10;;;;;;5015125;28;20064;-68
2023/08/21 12:02:16;;;;;;;5.93;1.70;;;29.60;47.20;;;;;;5031013;28;20030;-68
2023/08/21 12:04:43;;;;;;;5.20;1.80;;;29.50;47.20;;;;;;5024473;28;20026;-68
2023/08/21 12:07:09;;;;;;;4.72;1.50;;;29.40;47.50;;;;;;5023516;28;20422;-68
2023/08/21 12:09:35;;;;;;;4.57;1.40;;;29.30;47.50;;;;;;5013359;28;20062;-68
2023/08/21 12:12:00;;;;;;;5.57;1.90;;;29.00;47.70;;;;;;5015048;28;20029;-69
2023/08/21 12:14:28;;;;;;;4.90;1.38;;;28.80;47.90;;;;;;5012143;28;20417;-68
2023/08/21 12:16:54;;;;;;;3.85;1.40;;;28.80;48.20;;;;;;5019032;28;20159;-67
2023/08/21 12:19:21;;;;;;;8.80;1.70;;;28.80;48.10;;;;;;5020718;28;20069;-66
2023/08/21 12:21:47;;;;;;;4.68;1.30;;;28.90;48.10;;;;;;5018501;28;20088;-68
2023/08/21 12:24:13;;;;;;;4.43;1.30;;;28.90;48.00;;;;;;5014755;28;20018;-68
2023/08/21 12:26:39;;;;;;;5.18;1.45;;;28.80;48.00;;;;;;5019377;28;20474;-67
2023/08/21 12:29:05;;;;;;;4.82;1.38;;;28.70;48.60;;;;;;5013985;28;20048;-69
2023/08/21 12:31:30;;;;;;;4.95;1.60;;;28.60;48.30;;;;;;5003610;28;20029;-68
2023/08/21 12:33:56;;;;;;;4.75;1.70;;;28.50;48.60;;;;;;5021017;28;20033;-68
2023/08/21 12:36:22;;;;;;;7.50;1.98;;;28.50;48.60;;;;;;5017304;28;20037;-68
2023/08/21 12:38:48;;;;;;;5.47;1.60;;;28.50;48.50;;;;;;5030775;28;20029;-68
2023/08/21 12:41:14;;;;;;;4.75;1.40;;;28.40;49.00;;;;;;5020713;28;20033;-68
2023/08/21 12:43:39;;;;;;;4.78;1.60;;;28.30;49.00;;;;;;5034611;28;20095;-68
2023/08/21 12:46:05;;;;;;;8.10;1.90;;;28.30;48.90;;;;;;5030857;28;20112;-68
2023/08/21 12:48:31;;;;;;;5.38;1.75;;;28.30;48.90;;;;;;5028605;28;20468;-68